createdAt,value
2018-09-01T00:03:08.214Z,95697.3
2018-09-01T00:08:05.490Z,95807
2018-09-01T00:13:02.633Z,95697.2
2018-09-01T00:17:59.633Z,95706.8
2018-09-01T00:22:57.125Z,95709.3
2018-09-01T00:27:54.169Z,95677
2018-09-01T00:32:51.493Z,95702.9
2018-09-01T00:37:48.415Z,95702
2018-09-01T00:42:45.429Z,95712.9
2018-09-01T00:47:42.457Z,95722.5
2018-09-01T00:52:39.458Z,95719.2
2018-09-01T00:57:37.121Z,95719.4
2018-09-01T01:02:34.367Z,95716.1
2018-09-01T01:07:31.623Z,95715.1
2018-09-01T01:12:29.073Z,95713
2018-09-01T01:17:26.141Z,95707.1
2018-09-01T01:22:23.244Z,95712.1
2018-09-01T01:27:20.432Z,95713.8
2018-09-01T01:32:17.716Z,95709.7
2018-09-01T01:37:15.003Z,95711.5
2018-09-01T01:42:12.140Z,95709.3
2018-09-01T01:47:09.231Z,95709.7
2018-09-01T01:52:06.854Z,95756.5
2018-09-01T01:57:04.478Z,95673.1
2018-09-01T02:02:01.780Z,95716
2018-09-01T02:06:59.431Z,95717.1
2018-09-01T02:11:56.347Z,95718.1
2018-09-01T02:16:54.201Z,95718.4
2018-09-01T02:21:51.147Z,95715.9
2018-09-01T02:26:49.957Z,95713.4
2018-09-01T02:31:46.431Z,95714.4
2018-09-01T02:36:44.029Z,95712.8
2018-09-01T02:41:41.386Z,95705.7
2018-09-01T02:46:39.425Z,95700.3
2018-09-01T02:51:36.568Z,95653.2
2018-09-01T02:56:33.873Z,95705.6
2018-09-01T03:01:31.485Z,95709.1
2018-09-01T03:06:28.918Z,95705.1
2018-09-01T03:11:27.324Z,95705.2
2018-09-01T03:16:24.501Z,95710.6
2018-09-01T03:21:21.570Z,95714.4
2018-09-01T03:26:18.880Z,95612.2
2018-09-01T03:31:16.006Z,95719.1
2018-09-01T03:36:13.041Z,95727.9
2018-09-01T03:41:10.136Z,95725
2018-09-01T03:46:07.874Z,95730.9
2018-09-01T03:51:08.880Z,95633.8
2018-09-01T03:56:05.865Z,95738.1
2018-09-01T04:01:02.809Z,95751.6
2018-09-01T04:06:00.089Z,95754.5
2018-09-01T04:10:57.019Z,95759.5
2018-09-01T04:15:54.174Z,95765
2018-09-01T04:20:51.410Z,95759.8
2018-09-01T04:25:48.729Z,95759.4
2018-09-01T04:30:45.892Z,95754.6
2018-09-01T04:35:43.132Z,95747.9
2018-09-01T04:40:40.291Z,95755.4
2018-09-01T04:45:37.423Z,95716.5
2018-09-01T04:50:35.763Z,95708.5
2018-09-01T04:55:32.390Z,95754.1
2018-09-01T05:00:30.204Z,95750.4
2018-09-01T05:05:26.982Z,95638.3
2018-09-01T05:10:24.054Z,95749
2018-09-01T05:15:22.162Z,95747.8
2018-09-01T05:20:19.603Z,95744
2018-09-01T05:25:16.651Z,95741.9
2018-09-01T05:30:13.899Z,95748
2018-09-01T05:35:12.560Z,95751.3
2018-09-01T05:40:09.376Z,95751.3
2018-09-01T05:45:07.795Z,95751.2
2018-09-01T05:50:05.009Z,95748.1
2018-09-01T05:55:03.489Z,95751
2018-09-01T06:00:00.537Z,95750.3
2018-09-01T06:04:58.383Z,95751.2
2018-09-01T06:09:55.198Z,95792.6
2018-09-01T06:14:52.964Z,95749.6
2018-09-01T06:19:53.307Z,95755.5
2018-09-01T06:24:56.081Z,95753.6
2018-09-01T06:29:51.802Z,95756.3
2018-09-01T06:34:49.214Z,95757.3
2018-09-01T06:39:47.031Z,95755
2018-09-01T06:44:44.213Z,95763.1
2018-09-01T06:49:41.489Z,95769.6
2018-09-01T06:54:39.722Z,95768.9
2018-09-01T06:59:41.063Z,95766
2018-09-01T07:04:38.402Z,95768.5
2018-09-01T07:09:51.913Z,95673.3
2018-09-01T07:14:46.110Z,95768.1
2018-09-01T07:19:43.373Z,95769.2
2018-09-01T07:24:42.021Z,95854.6
2018-09-01T07:29:47.735Z,95674.1
2018-09-01T07:34:47.799Z,95655.3
2018-09-01T07:39:52.785Z,95715.6
2018-09-01T07:44:53.410Z,95716.2
2018-09-01T07:50:06.373Z,95769.2
2018-09-01T07:55:03.596Z,95659.8
2018-09-01T08:00:01.456Z,95755.5
2018-09-01T08:04:58.337Z,95747.2
2018-09-01T08:09:56.092Z,95746.5
2018-09-01T08:14:56.333Z,95749.6
2018-09-01T08:19:53.163Z,95752.5
2018-09-01T08:24:50.537Z,95741.3
2018-09-01T08:29:47.873Z,95742.1
2018-09-01T08:34:45.007Z,95739.2
2018-09-01T08:39:42.668Z,95735.8
2018-09-01T08:44:40.267Z,95733.8
2018-09-01T08:49:52.851Z,95717.7
2018-09-01T08:54:47.771Z,95722
2018-09-01T08:59:45.854Z,95721.2
2018-09-01T09:04:44.406Z,95616.3
2018-09-01T09:09:41.201Z,95719
2018-09-01T09:14:38.711Z,95827.1
2018-09-01T09:19:37.930Z,95707.5
2018-09-01T09:24:35.439Z,95719
2018-09-01T09:29:36.795Z,95716.4
2018-09-01T09:34:38.246Z,95657.5
2018-09-01T09:39:34.518Z,95607.8
2018-09-01T09:44:31.473Z,95712.3
2018-09-01T09:49:29.054Z,95717.7
2018-09-01T09:54:26.832Z,95715.2
2018-09-01T09:59:24.475Z,95602.8
2018-09-01T10:04:26.398Z,95666.2
2018-09-01T10:09:22.632Z,95711.9
2018-09-01T10:14:20.546Z,95711.9
2018-09-01T10:19:18.283Z,95704.3
2018-09-01T10:24:15.738Z,95609.4
2018-09-01T10:29:13.170Z,95695
2018-09-01T10:34:10.675Z,95653.1
2018-09-01T10:39:08.774Z,95687.2
2018-09-01T10:44:14.676Z,95591.1
2018-09-01T10:49:10.162Z,95674.1
2018-09-01T10:54:11.236Z,95665.8
2018-09-01T10:59:08.853Z,95669.4
2018-09-01T11:04:06.798Z,95663.5
2018-09-01T11:09:04.068Z,95660.4
2018-09-01T11:14:03.903Z,95663.7
2018-09-01T11:19:05.111Z,95660.4
2018-09-01T11:24:03.275Z,95668.4
2018-09-01T11:29:00.609Z,95665.9
2018-09-01T11:33:57.776Z,95651.2
2018-09-01T11:38:55.341Z,95649.5
2018-09-01T11:43:52.847Z,95638.6
2018-09-01T11:48:50.621Z,95639.5
2018-09-01T11:53:48.195Z,95629.5
2018-09-01T11:58:46.053Z,95631.3
2018-09-01T12:03:48.976Z,95622.3
2018-09-01T12:08:45.221Z,95622.6
2018-09-01T12:13:42.179Z,95716
2018-09-01T12:18:39.349Z,95629.8
2018-09-01T12:23:39.607Z,95610.6
2018-09-01T12:28:36.831Z,95611
2018-09-01T12:33:38.674Z,95612
2018-09-01T12:38:34.801Z,95609.7
2018-09-01T12:43:33.709Z,95666.6
2018-09-01T12:48:33.283Z,95629.6
2018-09-01T12:53:34.740Z,95520.1
2018-09-01T12:58:32.220Z,95601.5
2018-09-01T13:03:29.553Z,95599.3
2018-09-01T13:08:26.889Z,95674.6
2018-09-01T13:13:28.137Z,95587.2
2018-09-01T13:18:25.277Z,95582.6
2018-09-01T13:23:23.342Z,95578.7
2018-09-01T13:28:29.405Z,95602.8
2018-09-01T13:33:24.949Z,95646.5
2018-09-01T13:38:23.217Z,95469.5
2018-09-01T13:43:21.472Z,95566.3
2018-09-01T13:48:32.398Z,95543.4
2018-09-01T13:53:27.482Z,95664
2018-09-01T13:58:24.736Z,95583.6
2018-09-01T14:03:22.039Z,95568.4
2018-09-01T14:08:21.348Z,95685.4
2018-09-01T14:13:18.237Z,95577.5
2018-09-01T14:18:15.749Z,95572.4
2018-09-01T14:23:13.727Z,95565.9
2018-09-01T14:28:11.073Z,95578.1
2018-09-01T14:33:08.389Z,95577.5
2018-09-01T14:38:05.540Z,95571
2018-09-01T14:43:03.096Z,95585.8
2018-09-01T14:48:00.444Z,95565.4
2018-09-01T14:52:57.272Z,95570.5
2018-09-01T14:57:54.613Z,95566
2018-09-01T15:02:52.772Z,95565.5
2018-09-01T15:07:50.201Z,95566.3
2018-09-01T15:12:48.202Z,95576.3
2018-09-01T15:17:45.633Z,95580.8
2018-09-01T15:22:42.965Z,95580.4
2018-09-01T15:27:40.238Z,95582.3
2018-09-01T15:32:37.634Z,95575.5
2018-09-01T15:37:34.296Z,95580.5
2018-09-01T15:42:31.386Z,95580
2018-09-01T15:47:28.910Z,95584.3
2018-09-01T15:52:26.149Z,95592.1
2018-09-01T15:57:23.796Z,95589.6
2018-09-01T16:02:21.120Z,95594.8
2018-09-01T16:07:19.012Z,95695.3
2018-09-01T16:12:16.495Z,95594.6
2018-09-01T16:17:13.767Z,95568.5
2018-09-01T16:22:10.673Z,95599.2
2018-09-01T16:27:08.996Z,95591.2
2018-09-01T16:32:05.988Z,95582.5
2018-09-01T16:37:03.177Z,95587.3
2018-09-01T16:41:59.836Z,95591.1
2018-09-01T16:46:57.205Z,95595.1
2018-09-01T16:51:54.461Z,95597.2
2018-09-01T16:56:51.850Z,95600.7
2018-09-01T17:01:49.192Z,95597.7
2018-09-01T17:06:46.222Z,95600.2
2018-09-01T17:11:43.443Z,95609
2018-09-01T17:16:42.068Z,95522.4
2018-09-01T17:21:39.591Z,95623.9
2018-09-01T17:26:37.033Z,95626
2018-09-01T17:31:34.055Z,95633.8
2018-09-01T17:36:31.644Z,95638.6
2018-09-01T17:41:28.652Z,95650.2
2018-09-01T17:46:26.386Z,95642.4
2018-09-01T17:51:23.611Z,95645.9
2018-09-01T17:56:21.019Z,95654.5
2018-09-01T18:01:18.451Z,95656.9
2018-09-01T18:06:15.879Z,95654.7
2018-09-01T18:11:13.408Z,95614.7
2018-09-01T18:16:10.292Z,95653.8
2018-09-01T18:21:07.844Z,95657.8
2018-09-01T18:26:05.027Z,95667.5
2018-09-01T18:31:02.122Z,95661.5
2018-09-01T18:35:59.871Z,95670.1
2018-09-01T18:40:58.554Z,95675.9
2018-09-01T18:45:55.412Z,95678.3
2018-09-01T18:50:52.634Z,95677.4
2018-09-01T18:55:50.311Z,95686.5
2018-09-01T19:00:47.954Z,95579.7
2018-09-01T19:05:45.441Z,95591.4
2018-09-01T19:10:42.471Z,95598.2
2018-09-01T19:15:41.228Z,95605.1
2018-09-01T19:20:39.298Z,95698.1
2018-09-01T19:25:35.874Z,95593.1
2018-09-01T19:30:33.084Z,95701.3
2018-09-01T19:35:30.264Z,95691.9
2018-09-01T19:40:29.124Z,95694.3
2018-09-01T19:45:26.329Z,95598.2
2018-09-01T19:50:26.357Z,95690.9
2018-09-01T19:55:24.193Z,95692.3
2018-09-01T20:00:21.366Z,95694.8
2018-09-01T20:05:18.552Z,95688.9
2018-09-01T20:10:16.021Z,95685.1
2018-09-01T20:15:13.354Z,95685.6
2018-09-01T20:20:10.617Z,95581.1
2018-09-01T20:25:07.896Z,95681.6
2018-09-01T20:30:06.314Z,95684.2
2018-09-01T20:35:04.024Z,95685
2018-09-01T20:40:01.386Z,95684.2
2018-09-01T20:44:58.640Z,95689.4
2018-09-01T20:49:55.569Z,95691
2018-09-01T20:54:54.120Z,95587.9
2018-09-01T20:59:51.658Z,95691.7
2018-09-01T21:04:48.549Z,95689
2018-09-01T21:09:46.834Z,95688.9
2018-09-01T21:14:44.603Z,95689.7
2018-09-01T21:19:41.201Z,95593.4
2018-09-01T21:24:38.757Z,95694.7
2018-09-01T21:29:36.521Z,95687.8
2018-09-01T21:34:34.584Z,95684.2
2018-09-01T21:39:31.926Z,95645.3
2018-09-01T21:44:29.727Z,95680
2018-09-01T21:49:27.329Z,95682
2018-09-01T21:54:24.055Z,95681.3
2018-09-01T21:59:21.856Z,95680.7
2018-09-01T22:04:19.162Z,95685.6
2018-09-01T22:09:16.263Z,95794.9
2018-09-01T22:14:13.432Z,95686.5
2018-09-01T22:19:10.689Z,95691.3
2018-09-01T22:24:08.472Z,95689.6
2018-09-01T22:29:05.956Z,95694.6
2018-09-01T22:34:03.373Z,95702.3
2018-09-01T22:39:01.140Z,95697
2018-09-01T22:43:58.680Z,95699.3
2018-09-01T22:48:56.058Z,95700.3
2018-09-01T22:53:53.715Z,95701.3
2018-09-01T22:58:50.858Z,95714.4
2018-09-01T23:03:47.933Z,95706.2
2018-09-01T23:08:45.257Z,95711
2018-09-01T23:13:42.717Z,95714.4
2018-09-01T23:18:39.919Z,95712.3
2018-09-01T23:23:37.173Z,95721.7
2018-09-01T23:28:34.308Z,95643.6
2018-09-01T23:33:32.218Z,95711.5
2018-09-01T23:38:29.532Z,95712.1
2018-09-01T23:43:26.618Z,95710.6
2018-09-01T23:48:23.993Z,95715.4
2018-09-01T23:53:20.971Z,95715.8
2018-09-01T23:58:19.179Z,95841.9
